Fort Raleigh National Histor, North Carolina
Current Conditions -  °F | °C
As of 11:35 PM on Thursday 18 Dec 2014 (Local Time) from KMQI Reporting Station
Scattered Clouds Scattered Clouds  
Wind Chill: 40°   Ceiling: Unl
Heat Index: 43°   Visibility: 10mi
Dew Point: 36°   Wind: 5mph
Humidity: 76%   Direction: 270°W
Pressure: 30.11"   Gusts: NA
Location:  35.8834°N, 75.6616°W
Report Text: KMQI 190435Z AUTO 27004KT 10SM SCT090 06/02 A3011 RMK AO2 T00590020
Loading
Personal Weather Stations






























Interactive Weather Map New forecast layout! Learn more

10-Day Weather Forecast

Advertisements
Track Severe Weather on mobile